Shah Amanat International Airport
VGEG : now visible

Airfield :











YOU CAN JOIN US ON...

 
LOGIN :

Register | Disclaimer

   EN    FR    IT 

 









Legend :    VFR   Marginal VFR   IFR   Intensive IFR   Very Intensive IFR
Visi :
Ceiling :
>= 8 km
>= 3000ft
5 to 8 km
1000 to 3000 ft
1500m to 5 km
500 to 1000 ft
800 to 1500m
200 to 500 ft
< 800m
< 200 ft
Symbols :   Thunderstorms  Fog  Heavy snow  Heavy precipitations  Wind > 20 kt






- Airport Elevation : 12 ft
- IATA code : CGP


VGEG - Shah Amanat International

METAR N/A
TAF TAF VGEG
Valid from the 02 at 12:00 until the 03 at 18:00 UTC


021100Z 0212/0318 20006KT 3600 HZ SCT016 BKN100
BECMG 0212/0214 17008KT 4000 HZ SCT016 BKN100
TEMPO 0214/0302 18015KT 1500 RA/TSRA BKN007 FEW025CB OVC090
BECMG 0308/0310 19010KT 4200 HZ SCT018 BKN100
VGFR FIR / Asia



MET'MAP, your aeronautical weather chart ! - Copyright ORBIFLY December 2007 - Disclaimer

ORBIFLY MET'MAP TEAM :

Programming & Development : Alexandra Zaïnal
Concept & original design : Baudouin d'Aumeries
Assistance for programming : Marc-Olivier Méhu
Technical & hardware support : Manuel Goepfert

Contact : metmap@orbifly.com




SOURCES & CREDITS :

   NOAA       Earth
Advisory